Columbia (CAE/KCAE)

Map

Destinations

Information

Location
Columbia, SC
Local Time
13:03 / 1:03 pm
GMT Time
18:03 / 6:03 pm
Gates
Unassigned
No FAA reported delays
METAR KCAE 191756Z 29009KT 10SM FEW130 18/M02 A2988 RMK AO2 SLP116 T01831017 10183 20128 58007
TAF KCAE 191731Z 1918/2018 31012KT P6SM SKC FM192200 30006KT P6SM SKC FM200100 VRB04KT P6SM SKC